메인 페이지
METAR-TAF:

METAR-TAF

공항 :

탈린 공항

탈린, 에스토니아

위도: 59-23N, 경도: 024-35E, 고도: 44m

현재 날씨관측

예보는 25분 전, 06:20시(UTC)에 발표되었습니다.
16kt
온도 18°C
습도 83%
기압 1011 hPa
시정 10km 이상
고도 900ft 상공 구름 많음
고도 1800ft 상공 구름 조금, 적란운.
고도 4800ft 상공 구름 많음

METAR: EETN 190620Z 27016KT 9999 BKN009 FEW018CB BKN048 18/15 Q1011 NOSIG

시각: 09:45 (06:45 UTC)

예보

예보는 7 시간 15분 전, 23:30시(UTC)에 발표되었습니다.
예보 대상 시간: 19일 00시부터 19일 24시까지 (UTC)
남남서10kt
시정 10km 이상
고도 1200ft 상공 구름 보통
고도 2500ft 상공 구름 보통, 적란운.
고도 3000ft 상공 구름 많음
일시적
19일 00시부터 19일 09시까지 (UTC)
시정: 4000m
고도 500ft 상공 구름 많음
고도 2000ft 상공 구름 보통, 적란운.
소나기
전환 중
19일 03시부터 19일 05시까지 (UTC)
14kt, 순간 최대 풍속 25kt
일시적
19일 21시부터 19일 24시까지 (UTC)
시정: 2000m
고도 800ft 상공 구름 많음
고도 2000ft 상공 구름 많음, 적란운.
소나기,

TAF: EETN 182330Z 1900/1924 21010KT 9999 SCT012 SCT025CB BKN030 TEMPO 1900/1909 4000 SHRA BKN005 SCT020CB BECMG 1903/1905 27014G25KT TEMPO 1921/1924 2000 SHRA BKN008 BKN020CB

4,000개 이상의 공항 관측 자료 및 예보 (METAR 및 TAF 보고).

지도상에서 검색 가능한 기상관측소가 노란 점과 빨간 점으로 표시되어 있습니다.

기상관측소 명을 보려면 표시 위로 마우스를 이동하세요.

날씨 관측과 예보를 보려면 클릭하세요.

지도 변경 : 확대하려면 엑스 표시가 있는 녹색 버튼, 축소하려면 빼기 표시가 있는 녹색 버튼, 다음 페이지의 지도를 보려면 녹색 화살표를 클릭하세요.


METAR-TAF: